Aeroporto :
LOGIN :

Iscrizione | Disclaimer

   EN    FR    IT 

 










Sommario :    VFR   VFR Marginale   IFR   IFR Intensivo   IFR Molto Intensivo
Visibilità : 
Base nubi : 
>= 8 km
>= 3000ft
5 / 8 km
1000 / 3000 ft
1500m / 5 km
500 / 1000 ft
800 / 1500m
200 / 500 ft
< 800m
< 200 ft
Simboli :   Temporali  Nebbia  Neve Forte  Precipitazioni Forti  Vento > 20 kt
SIGMETs :   Varie  Temporali  Ghiacco  Turbolenza  Onda orograficha  Ceneri Vulcaniche







- Altitudine del aeroporto : 247 ft
- Codice IATA : BLL


EKBI - Billund

ULTIMO METAR :
  • 260950Z 32016G31KT 9999 BKN035 07/00 Q1022

METARs OBSOLETI :
  • 260920Z 33018G28KT 9999 BKN030 07/M00 Q1022
  • 260850Z 32017KT 9999 BKN030 06/M00 Q1022
  • 260820Z 31020G31KT 9999 BKN027 07/01 Q1021
  • 260750Z AUTO 30019KT 9999 BKN027/// 06/01 Q1021
  • 260720Z AUTO 31017KT 9999 BKN027/// 05/01 Q1021
  • 260650Z AUTO 30015KT 9999 BKN031/// 05/01 Q1021

TAF AMD TAF EKBI
Valido dal 26 a 09 ore il 27 a 06 ore UTC


260927Z 2609/2706 29012KT 9999 BKN020
TEMPO 2609/2612 31015G25KT
TEMPO 2618/2623 4000 -RADZ BKN008
BECMG 2623/2702 3000 -RADZ BR BKN005
BECMG 2702/2704 0500 FG VV001
TEMPO 2704/2706 2000 BCFG BR BKN003
Nessun NOTAM noto per questo aeroporto.



MetMap, La meteo Aeronautica in un colpo d'occhio ! - Copyright ORBIFLY Dicembre 2007 - Disclaimer

ORBIFLY MET'MAP TEAM :

Programmazione e sviluppo : Alexandra Zaïnal
Concezione e sviluppo : Baudouin d'Aumeries
Co-Programmazione e sviluppo : Marc-Olivier Méhu
Supporto tecnico e logistico : Manuel Goepfert
Aiuto per la traduzione : Arnaldo La Scala

Contatto : metmap@orbifly.com




FONTI E CREDITI :

   NOAA